createdAt,value
2017-12-28T00:02:15.001Z,81.75
2017-12-28T00:04:40.784Z,81.96
2017-12-28T00:07:07.533Z,82.44
2017-12-28T00:09:33.334Z,82.84
2017-12-28T00:12:02.735Z,83.32
2017-12-28T00:14:28.585Z,83.98
2017-12-28T00:16:57.123Z,84.41
2017-12-28T00:19:22.986Z,84.74
2017-12-28T00:21:51.960Z,85.48
2017-12-28T00:24:17.777Z,85.89
2017-12-28T00:26:46.758Z,86.10
2017-12-28T00:29:12.564Z,86.46
2017-12-28T00:31:42.015Z,86.59
2017-12-28T00:34:07.859Z,86.19
2017-12-28T00:36:33.750Z,86.12
2017-12-28T00:38:59.593Z,86.19
2017-12-28T00:41:25.447Z,86.27
2017-12-28T00:43:52.687Z,86.34
2017-12-28T00:46:18.495Z,86.25
2017-12-28T00:48:51.144Z,86.05
2017-12-28T00:51:16.956Z,85.63
2017-12-28T00:53:42.764Z,85.52
2017-12-28T00:56:08.592Z,85.45
2017-12-28T00:58:38.235Z,85.18
2017-12-28T01:01:04.011Z,85.13
2017-12-28T01:03:33.466Z,84.59
2017-12-28T01:05:59.252Z,84.57
2017-12-28T01:08:26.946Z,84.23
2017-12-28T01:10:52.736Z,84.20
2017-12-28T01:13:18.542Z,83.89
2017-12-28T01:15:44.318Z,83.60
2017-12-28T01:18:10.133Z,83.76
2017-12-28T01:20:39.189Z,83.94
2017-12-28T01:23:04.996Z,83.79
2017-12-28T01:25:33.310Z,83.84
2017-12-28T01:27:59.088Z,84.08
2017-12-28T01:30:27.395Z,83.86
2017-12-28T01:32:53.179Z,83.60
2017-12-28T01:35:22.850Z,83.06
2017-12-28T01:37:51.616Z,83.54
2017-12-28T01:40:17.453Z,83.30
2017-12-28T01:42:43.296Z,82.84
2017-12-28T01:45:12.573Z,83.22
2017-12-28T01:47:50.846Z,82.99
2017-12-28T01:50:16.659Z,83.15
2017-12-28T01:52:42.462Z,82.81
2017-12-28T01:55:08.284Z,83.00
2017-12-28T01:57:34.113Z,82.83
2017-12-28T01:59:59.950Z,82.86
2017-12-28T02:02:25.756Z,82.98
2017-12-28T02:04:51.626Z,83.01
2017-12-28T02:07:17.433Z,82.92
2017-12-28T02:09:43.241Z,83.16
2017-12-28T02:12:09.098Z,83.15
2017-12-28T02:14:34.913Z,82.71
2017-12-28T02:17:02.161Z,82.76
2017-12-28T02:19:28.002Z,82.77
2017-12-28T02:21:57.412Z,82.61
2017-12-28T02:24:23.205Z,82.90
2017-12-28T02:26:49.050Z,82.87
2017-12-28T02:29:14.851Z,83.25
2017-12-28T02:31:40.648Z,82.12
2017-12-28T02:34:10.524Z,81.52
2017-12-28T02:36:36.314Z,80.91
2017-12-28T02:39:03.606Z,80.39
2017-12-28T02:41:29.460Z,80.48
2017-12-28T02:43:58.776Z,80.65
2017-12-28T02:46:24.720Z,80.09
2017-12-28T02:48:52.753Z,80.49
2017-12-28T02:51:18.578Z,80.46
2017-12-28T02:53:47.504Z,80.13
2017-12-28T02:56:13.328Z,80.20
2017-12-28T02:58:42.118Z,80.76
2017-12-28T03:01:07.919Z,80.59
2017-12-28T03:03:33.717Z,80.69
2017-12-28T03:05:59.576Z,80.86
2017-12-28T03:08:25.429Z,81.15
2017-12-28T03:10:54.744Z,80.81
2017-12-28T03:13:20.556Z,81.50
2017-12-28T03:15:49.988Z,81.93
2017-12-28T03:18:15.839Z,82.18
2017-12-28T03:20:43.800Z,82.12
2017-12-28T03:23:09.616Z,82.21
2017-12-28T03:25:38.788Z,81.85
2017-12-28T03:28:04.733Z,81.93
2017-12-28T03:30:33.898Z,82.55
2017-12-28T03:32:59.749Z,82.93
2017-12-28T03:35:29.360Z,83.23
2017-12-28T03:37:55.215Z,83.92
2017-12-28T03:40:21.041Z,84.05
2017-12-28T03:42:46.876Z,84.57
2017-12-28T03:45:12.742Z,84.76
2017-12-28T03:47:39.711Z,84.76
2017-12-28T03:50:05.598Z,84.57
2017-12-28T03:52:35.046Z,84.78
2017-12-28T03:55:00.857Z,84.33
2017-12-28T03:57:28.505Z,84.55
2017-12-28T03:59:54.373Z,84.66
2017-12-28T04:02:20.899Z,84.21
2017-12-28T04:04:46.727Z,84.20
2017-12-28T04:07:12.576Z,84.18
2017-12-28T04:09:41.386Z,84.25
2017-12-28T04:12:07.196Z,84.76
2017-12-28T04:14:35.080Z,85.10
2017-12-28T04:17:00.912Z,86.08
2017-12-28T04:19:30.618Z,86.78
2017-12-28T04:21:56.470Z,87.14
2017-12-28T04:24:26.257Z,87.25
2017-12-28T04:26:52.101Z,87.48
2017-12-28T04:29:21.141Z,87.70
2017-12-28T04:31:47.004Z,88.11
2017-12-28T04:34:15.946Z,88.41
2017-12-28T04:36:41.783Z,88.40
2017-12-28T04:39:08.940Z,88.91
2017-12-28T04:41:34.787Z,89.26
2017-12-28T04:44:04.049Z,89.62
2017-12-28T04:46:29.912Z,89.84
2017-12-28T04:48:58.786Z,89.66
2017-12-28T04:51:24.620Z,89.79
2017-12-28T04:53:50.478Z,89.89
2017-12-28T04:56:16.290Z,90.04
2017-12-28T04:58:42.132Z,90.15
2017-12-28T05:01:10.851Z,90.44
2017-12-28T05:03:36.649Z,90.59
2017-12-28T05:06:06.403Z,90.94
2017-12-28T05:08:32.246Z,91.05
2017-12-28T05:11:01.304Z,90.98
2017-12-28T05:13:27.136Z,91.14
2017-12-28T05:15:54.368Z,91.20
2017-12-28T05:18:20.200Z,91.26
2017-12-28T05:20:49.249Z,91.45
2017-12-28T05:23:15.085Z,91.39
2017-12-28T05:25:44.299Z,91.39
2017-12-28T05:28:10.076Z,91.59
2017-12-28T05:30:35.941Z,91.62
2017-12-28T05:33:01.800Z,91.88
2017-12-28T05:35:27.607Z,91.72
2017-12-28T05:37:56.945Z,92.06
2017-12-28T05:40:22.795Z,91.87
2017-12-28T05:42:52.088Z,92.04
2017-12-28T05:45:17.922Z,91.91
2017-12-28T05:47:45.171Z,92.06
2017-12-28T05:50:11.010Z,92.00
2017-12-28T05:52:40.257Z,92.10
2017-12-28T05:55:06.129Z,92.10
2017-12-28T05:57:35.215Z,92.15
2017-12-28T06:00:01.051Z,92.41
2017-12-28T06:02:28.679Z,92.53
2017-12-28T06:04:54.497Z,92.77
2017-12-28T06:07:20.367Z,92.75
2017-12-28T06:09:46.159Z,92.98
2017-12-28T06:12:11.977Z,93.10
2017-12-28T06:14:41.094Z,93.03
2017-12-28T06:17:06.943Z,92.87
2017-12-28T06:19:36.126Z,92.84
2017-12-28T06:22:01.949Z,92.87
2017-12-28T06:24:33.883Z,92.86
2017-12-28T06:27:00.290Z,92.94
2017-12-28T06:29:26.130Z,92.93
2017-12-28T06:31:51.916Z,92.92
2017-12-28T06:34:21.316Z,92.80
2017-12-28T06:36:47.119Z,93.22
2017-12-28T06:39:14.269Z,93.12
2017-12-28T06:41:40.132Z,92.78
2017-12-28T06:44:05.937Z,92.72
2017-12-28T06:46:31.753Z,93.02
2017-12-28T06:48:57.604Z,92.92
2017-12-28T06:51:26.761Z,93.03
2017-12-28T06:53:52.626Z,93.18
2017-12-28T06:56:21.115Z,93.21
2017-12-28T06:58:46.975Z,92.89
2017-12-28T07:01:17.322Z,92.72
2017-12-28T07:03:43.172Z,92.49
2017-12-28T07:06:10.718Z,92.43
2017-12-28T07:08:36.535Z,92.17
2017-12-28T07:11:05.734Z,92.35
2017-12-28T07:13:31.547Z,92.78
2017-12-28T07:16:00.902Z,93.04
2017-12-28T07:18:26.766Z,92.76
2017-12-28T07:20:52.597Z,92.82
2017-12-28T07:23:18.428Z,92.66
2017-12-28T07:25:44.260Z,92.63
2017-12-28T07:28:11.310Z,92.69
2017-12-28T07:30:37.184Z,92.80
2017-12-28T07:33:06.032Z,92.82
2017-12-28T07:35:31.854Z,92.77
2017-12-28T07:38:00.482Z,92.85
2017-12-28T07:40:26.354Z,92.75
2017-12-28T07:45:23.175Z,92.42
2017-12-28T07:47:50.618Z,92.53
2017-12-28T07:50:16.458Z,92.32
2017-12-28T07:52:45.630Z,92.44
2017-12-28T07:55:11.472Z,92.35
2017-12-28T07:57:37.261Z,92.15
2017-12-28T08:00:03.179Z,92.02
2017-12-28T08:02:29.001Z,92.00
2017-12-28T08:04:58.321Z,91.81
2017-12-28T08:07:24.159Z,91.97
2017-12-28T08:09:53.895Z,91.77
2017-12-28T08:12:19.702Z,91.96
2017-12-28T08:14:46.488Z,91.57
2017-12-28T08:17:12.576Z,91.31
2017-12-28T08:19:42.290Z,91.46
2017-12-28T08:22:08.117Z,91.36
2017-12-28T08:24:35.399Z,90.97
2017-12-28T08:27:02.388Z,90.76
2017-12-28T08:29:31.405Z,90.72
2017-12-28T08:31:57.230Z,90.09
2017-12-28T08:34:23.078Z,90.15
2017-12-28T08:36:48.922Z,89.52
2017-12-28T08:39:14.737Z,90.02
2017-12-28T08:41:42.424Z,90.09
2017-12-28T08:44:08.262Z,89.84
2017-12-28T08:46:36.602Z,89.77
2017-12-28T08:49:02.388Z,89.03
2017-12-28T08:51:31.817Z,89.71
2017-12-28T08:53:57.651Z,88.98
2017-12-28T08:56:26.714Z,89.02
2017-12-28T08:58:52.556Z,88.79
2017-12-28T09:01:20.841Z,89.14
2017-12-28T09:03:46.679Z,89.10
2017-12-28T09:06:16.110Z,89.06
2017-12-28T09:08:41.988Z,88.95
2017-12-28T09:11:07.794Z,88.69
2017-12-28T09:13:33.579Z,88.54
2017-12-28T09:15:59.422Z,88.72
2017-12-28T09:18:28.244Z,87.94
2017-12-28T09:20:54.073Z,88.40
2017-12-28T09:23:22.933Z,88.43
2017-12-28T09:25:48.765Z,88.71
2017-12-28T09:28:18.469Z,88.78
2017-12-28T09:30:44.335Z,88.23
2017-12-28T09:33:11.851Z,88.15
2017-12-28T09:35:37.729Z,88.09
2017-12-28T09:38:06.352Z,87.51
2017-12-28T09:40:32.190Z,87.95
2017-12-28T09:43:00.697Z,87.91
2017-12-28T09:45:26.534Z,87.92
2017-12-28T09:47:52.397Z,88.23
2017-12-28T09:50:18.198Z,87.85
2017-12-28T09:52:43.989Z,86.99
2017-12-28T09:55:13.340Z,86.90
2017-12-28T09:57:39.161Z,86.88
2017-12-28T10:00:08.715Z,87.37
2017-12-28T10:02:34.509Z,87.05
2017-12-28T10:05:03.444Z,87.24
2017-12-28T10:07:29.285Z,87.93
2017-12-28T10:09:58.297Z,87.98
2017-12-28T10:12:24.123Z,88.09
2017-12-28T10:14:51.884Z,87.50
2017-12-28T10:17:17.712Z,87.51
2017-12-28T10:19:46.633Z,87.65
2017-12-28T10:22:12.500Z,86.99
2017-12-28T10:24:38.302Z,87.17
2017-12-28T10:27:04.655Z,86.98
2017-12-28T10:29:30.467Z,86.99
2017-12-28T10:31:59.501Z,87.10
2017-12-28T10:34:25.276Z,86.32
2017-12-28T10:36:54.190Z,86.49
2017-12-28T10:39:19.982Z,86.68
2017-12-28T10:41:49.240Z,87.15
2017-12-28T10:44:15.078Z,87.36
2017-12-28T10:46:42.639Z,86.53
2017-12-28T10:49:08.417Z,86.19
2017-12-28T10:51:37.916Z,86.35
2017-12-28T10:54:03.765Z,85.84
2017-12-28T10:56:31.446Z,86.06
2017-12-28T10:58:57.264Z,87.34
2017-12-28T11:01:23.121Z,87.41
2017-12-28T11:03:48.976Z,87.96
2017-12-28T11:06:14.781Z,86.83
2017-12-28T11:08:44.273Z,86.84
2017-12-28T11:11:10.074Z,86.94
2017-12-28T11:13:38.602Z,86.31
2017-12-28T11:16:04.465Z,85.72
2017-12-28T11:18:34.027Z,86.06
2017-12-28T11:20:59.873Z,86.18
2017-12-28T11:23:28.680Z,85.19
2017-12-28T11:25:54.481Z,85.57
2017-12-28T11:28:22.122Z,85.41
2017-12-28T11:30:47.965Z,84.49
2017-12-28T11:33:17.183Z,84.56
2017-12-28T11:35:43.058Z,83.87
2017-12-28T11:38:08.852Z,84.44
2017-12-28T11:40:34.654Z,84.79
2017-12-28T11:43:00.496Z,83.51
2017-12-28T11:45:30.066Z,84.24
2017-12-28T11:47:55.952Z,84.44
2017-12-28T11:50:31.224Z,84.39
2017-12-28T11:53:03.098Z,84.30
2017-12-28T11:55:30.744Z,84.10
2017-12-28T11:57:56.642Z,83.80
2017-12-28T12:00:26.593Z,84.44
2017-12-28T12:02:58.366Z,84.57
2017-12-28T12:05:24.199Z,83.56
2017-12-28T12:07:50.084Z,84.35
2017-12-28T12:10:21.899Z,84.61
2017-12-28T12:12:47.746Z,85.23
2017-12-28T12:15:13.584Z,85.86
2017-12-28T12:17:39.377Z,84.81
2017-12-28T12:20:05.165Z,84.70
2017-12-28T12:22:30.993Z,84.95
2017-12-28T12:24:56.795Z,85.01
2017-12-28T12:27:22.643Z,85.14
2017-12-28T12:29:48.441Z,86.34
2017-12-28T12:32:14.312Z,86.02
2017-12-28T12:34:40.146Z,87.30
2017-12-28T12:37:05.973Z,86.94
2017-12-28T12:39:31.768Z,86.75
2017-12-28T12:41:57.625Z,86.61
2017-12-28T12:44:23.428Z,86.48
2017-12-28T12:46:49.249Z,86.99
2017-12-28T12:49:15.088Z,86.61
2017-12-28T12:51:40.894Z,85.90
2017-12-28T12:54:06.754Z,85.89
2017-12-28T12:56:32.577Z,87.01
2017-12-28T12:58:59.736Z,87.72
2017-12-28T13:01:25.577Z,88.46
2017-12-28T13:03:54.756Z,88.28
2017-12-28T13:06:20.593Z,87.83
2017-12-28T13:08:50.270Z,87.83
2017-12-28T13:11:16.166Z,87.83
2017-12-28T13:13:43.440Z,88.35
2017-12-28T13:16:09.278Z,88.13
2017-12-28T13:18:41.827Z,88.49
2017-12-28T13:21:07.656Z,88.67
2017-12-28T13:23:33.485Z,88.45
2017-12-28T13:25:59.303Z,89.55
2017-12-28T13:28:25.092Z,88.41
2017-12-28T13:30:50.937Z,87.91
2017-12-28T13:33:16.774Z,88.45
2017-12-28T13:35:44.377Z,88.56
2017-12-28T13:38:10.246Z,88.07
2017-12-28T13:40:38.905Z,88.30
2017-12-28T13:43:04.767Z,88.95
2017-12-28T13:48:01.503Z,88.91
2017-12-28T13:50:28.523Z,89.14
2017-12-28T13:52:54.366Z,89.20
2017-12-28T13:55:23.724Z,88.83
2017-12-28T13:57:49.573Z,89.61
2017-12-28T14:00:18.676Z,89.76
2017-12-28T14:02:44.516Z,89.88
2017-12-28T14:05:10.299Z,90.43
2017-12-28T14:07:36.112Z,90.32
2017-12-28T14:10:01.925Z,90.92
2017-12-28T14:12:29.945Z,90.89
2017-12-28T14:14:55.807Z,90.48
2017-12-28T14:17:24.905Z,91.28
2017-12-28T14:19:50.724Z,91.46
2017-12-28T14:22:19.961Z,91.38
2017-12-28T14:24:45.801Z,91.30
2017-12-28T14:27:14.990Z,91.20
2017-12-28T14:29:40.834Z,90.77
2017-12-28T14:32:08.391Z,90.49
2017-12-28T14:34:34.261Z,90.21
2017-12-28T14:37:03.069Z,89.66
2017-12-28T14:39:28.892Z,89.39
2017-12-28T14:41:54.703Z,89.27
2017-12-28T14:44:20.509Z,88.67
2017-12-28T14:46:46.453Z,89.11
2017-12-28T14:49:15.322Z,89.11
2017-12-28T14:51:41.148Z,89.44
2017-12-28T14:54:10.754Z,88.77
2017-12-28T14:56:36.562Z,88.97
2017-12-28T14:59:06.301Z,89.15
2017-12-28T15:01:32.155Z,88.50
2017-12-28T15:03:59.503Z,87.75
2017-12-28T15:06:25.330Z,88.54
2017-12-28T15:08:54.816Z,88.27
2017-12-28T15:11:20.635Z,87.98
2017-12-28T15:13:49.973Z,88.19
2017-12-28T15:16:15.787Z,87.49
2017-12-28T15:18:41.647Z,87.36
2017-12-28T15:21:07.484Z,87.33
2017-12-28T15:23:33.323Z,87.29
2017-12-28T15:26:01.061Z,86.41
2017-12-28T15:28:26.905Z,87.06
2017-12-28T15:30:56.370Z,86.16
2017-12-28T15:33:22.177Z,86.43
2017-12-28T15:35:50.120Z,86.48
2017-12-28T15:38:15.999Z,86.71
2017-12-28T15:40:44.662Z,86.17
2017-12-28T15:43:10.566Z,85.98
2017-12-28T15:45:39.999Z,86.46
2017-12-28T15:48:05.840Z,86.45
2017-12-28T15:50:34.666Z,86.51
2017-12-28T15:53:00.518Z,85.55
2017-12-28T15:55:26.399Z,85.72
2017-12-28T15:57:52.275Z,86.08
2017-12-28T16:00:18.108Z,85.89
2017-12-28T16:02:47.570Z,84.98
2017-12-28T16:05:13.372Z,85.19
2017-12-28T16:07:40.977Z,84.24
2017-12-28T16:10:06.801Z,83.90
2017-12-28T16:12:35.851Z,82.74
2017-12-28T16:15:01.702Z,84.34
2017-12-28T16:17:30.860Z,84.05
2017-12-28T16:19:56.689Z,83.60
2017-12-28T16:22:24.666Z,83.15
2017-12-28T16:24:50.466Z,82.88
2017-12-28T16:27:18.962Z,82.57
2017-12-28T16:29:44.867Z,82.38
2017-12-28T16:32:10.672Z,82.52
2017-12-28T16:34:36.475Z,81.58
2017-12-28T16:37:02.268Z,82.26
2017-12-28T16:39:31.401Z,81.75
2017-12-28T16:41:57.228Z,82.68
2017-12-28T16:44:26.685Z,81.73
2017-12-28T16:46:52.498Z,81.15
2017-12-28T16:49:22.061Z,80.77
2017-12-28T16:51:47.876Z,81.33
2017-12-28T16:54:17.077Z,80.90
2017-12-28T16:56:42.885Z,80.94
2017-12-28T16:59:10.003Z,81.53
2017-12-28T17:01:35.872Z,81.21
2017-12-28T17:04:05.107Z,81.36
2017-12-28T17:06:30.933Z,81.00
2017-12-28T17:08:56.771Z,81.51
2017-12-28T17:11:22.584Z,81.84
2017-12-28T17:13:48.396Z,81.27
2017-12-28T17:16:18.022Z,81.26
2017-12-28T17:18:43.845Z,81.77
2017-12-28T17:21:11.465Z,81.48
2017-12-28T17:23:37.275Z,81.50
2017-12-28T17:26:06.941Z,81.32
2017-12-28T17:28:32.754Z,81.57
2017-12-28T17:31:01.438Z,81.22
2017-12-28T17:33:27.276Z,82.00
2017-12-28T17:35:56.191Z,82.40
2017-12-28T17:38:22.033Z,82.24
2017-12-28T17:40:51.697Z,82.15
2017-12-28T17:43:17.542Z,82.39
2017-12-28T17:45:43.341Z,82.50
2017-12-28T17:48:09.224Z,83.10
2017-12-28T17:50:35.029Z,82.85
2017-12-28T17:53:01.814Z,83.05
2017-12-28T17:55:27.649Z,82.83
2017-12-28T17:57:56.942Z,83.05
2017-12-28T18:00:22.760Z,82.26
2017-12-28T18:02:52.497Z,82.52
2017-12-28T18:05:18.330Z,82.32
2017-12-28T18:07:45.922Z,82.61
2017-12-28T18:10:11.740Z,83.15
2017-12-28T18:12:40.377Z,83.04
2017-12-28T18:15:06.187Z,83.06
2017-12-28T18:17:32.721Z,82.88
2017-12-28T18:19:58.536Z,83.56
2017-12-28T18:22:24.378Z,83.81
2017-12-28T18:24:53.817Z,83.90
2017-12-28T18:27:19.632Z,84.22
2017-12-28T18:29:47.044Z,84.59
2017-12-28T18:32:13.012Z,85.16
2017-12-28T18:34:42.210Z,85.01
2017-12-28T18:37:08.052Z,85.20
2017-12-28T18:39:37.405Z,84.63
2017-12-28T18:42:03.236Z,84.65
2017-12-28T18:44:31.306Z,84.48
2017-12-28T18:46:57.138Z,84.33
2017-12-28T18:49:27.978Z,84.44
2017-12-28T18:51:53.835Z,84.31
2017-12-28T18:54:21.314Z,82.05
2017-12-28T18:56:47.129Z,82.36
2017-12-28T18:59:12.973Z,82.24
2017-12-28T19:01:38.766Z,81.59
2017-12-28T19:04:04.639Z,81.76
2017-12-28T19:06:32.376Z,81.66
2017-12-28T19:08:58.210Z,81.79
2017-12-28T19:11:27.537Z,81.85
2017-12-28T19:16:34.285Z,81.39
2017-12-28T19:19:00.076Z,81.49
2017-12-28T19:21:25.912Z,81.62
2017-12-28T19:23:51.755Z,81.66
2017-12-28T19:26:17.572Z,81.51
2017-12-28T19:28:43.401Z,82.36
2017-12-28T19:31:09.263Z,82.39
2017-12-28T19:33:35.095Z,82.20
2017-12-28T19:36:01.055Z,81.39
2017-12-28T19:38:26.867Z,81.19
2017-12-28T19:40:52.714Z,81.58
2017-12-28T19:43:18.574Z,81.64
2017-12-28T19:45:44.395Z,81.79
2017-12-28T19:48:12.702Z,81.66
2017-12-28T19:50:38.546Z,81.61
2017-12-28T19:53:07.660Z,81.53
2017-12-28T19:55:33.500Z,81.68
2017-12-28T19:58:03.225Z,81.33
2017-12-28T20:00:29.021Z,81.56
2017-12-28T20:02:58.410Z,81.28
2017-12-28T20:05:24.214Z,80.90
2017-12-28T20:07:51.312Z,80.78
2017-12-28T20:10:17.116Z,80.54
2017-12-28T20:12:42.945Z,80.52
2017-12-28T20:15:08.760Z,80.67
2017-12-28T20:17:34.600Z,80.86
2017-12-28T20:20:03.648Z,81.05
2017-12-28T20:22:29.501Z,80.62
2017-12-28T20:24:57.619Z,80.52
2017-12-28T20:27:23.413Z,80.85
2017-12-28T20:29:52.060Z,80.46
2017-12-28T20:32:17.867Z,80.51
2017-12-28T20:37:14.580Z,80.69
2017-12-28T20:39:43.657Z,80.23
2017-12-28T20:42:09.503Z,80.35
2017-12-28T20:44:37.089Z,80.27
2017-12-28T20:47:02.893Z,79.96
2017-12-28T20:49:28.737Z,79.75
2017-12-28T20:51:54.556Z,79.84
2017-12-28T20:54:20.415Z,79.78
2017-12-28T20:56:48.139Z,80.13
2017-12-28T20:59:13.969Z,79.72
2017-12-28T21:01:42.762Z,79.45
2017-12-28T21:04:08.601Z,79.33
2017-12-28T21:06:37.598Z,79.04
2017-12-28T21:09:03.463Z,79.08
2017-12-28T21:11:32.769Z,79.05
2017-12-28T21:13:58.600Z,79.17
2017-12-28T21:16:27.152Z,78.72
2017-12-28T21:18:52.946Z,78.59
2017-12-28T21:21:21.453Z,78.72
2017-12-28T21:23:47.282Z,79.18
2017-12-28T21:26:13.104Z,78.82
2017-12-28T21:28:38.942Z,78.94
2017-12-28T21:31:04.799Z,78.92
2017-12-28T21:33:35.045Z,78.59
2017-12-28T21:36:00.887Z,78.47
2017-12-28T21:38:29.716Z,78.56
2017-12-28T21:40:55.524Z,78.93
2017-12-28T21:43:24.865Z,79.03
2017-12-28T21:45:50.701Z,79.06
2017-12-28T21:48:17.804Z,79.31
2017-12-28T21:50:43.599Z,79.03
2017-12-28T21:53:12.232Z,78.87
2017-12-28T21:55:38.072Z,78.87
2017-12-28T21:58:06.858Z,79.07
2017-12-28T22:00:32.697Z,79.08
2017-12-28T22:02:58.548Z,79.21
2017-12-28T22:05:24.447Z,79.01
2017-12-28T22:07:50.270Z,79.03
2017-12-28T22:10:19.229Z,79.37
2017-12-28T22:12:45.020Z,79.51
2017-12-28T22:15:14.041Z,79.75
2017-12-28T22:17:39.873Z,79.79
2017-12-28T22:20:09.061Z,79.76
2017-12-28T22:22:34.874Z,79.91
2017-12-28T22:25:04.213Z,79.59
2017-12-28T22:27:30.103Z,79.04
2017-12-28T22:29:58.997Z,78.82
2017-12-28T22:32:24.830Z,78.95
2017-12-28T22:34:52.606Z,78.85
2017-12-28T22:37:18.408Z,78.61
2017-12-28T22:39:44.200Z,78.71
2017-12-28T22:42:10.040Z,79.08
2017-12-28T22:44:35.877Z,78.93
2017-12-28T22:47:04.855Z,79.07
2017-12-28T22:49:30.669Z,78.91
2017-12-28T22:52:00.321Z,79.08
2017-12-28T22:54:26.139Z,79.09
2017-12-28T22:56:55.100Z,79.20
2017-12-28T22:59:20.898Z,79.30
2017-12-28T23:01:50.216Z,79.27
2017-12-28T23:04:16.061Z,79.57
2017-12-28T23:06:43.463Z,79.77
2017-12-28T23:09:09.302Z,79.74
2017-12-28T23:11:38.597Z,79.86
2017-12-28T23:14:04.434Z,80.08
2017-12-28T23:16:31.198Z,80.05
2017-12-28T23:18:56.963Z,80.40
2017-12-28T23:21:22.769Z,80.76
2017-12-28T23:23:49.350Z,80.95
2017-12-28T23:26:15.164Z,80.78
2017-12-28T23:28:44.479Z,80.99
2017-12-28T23:31:10.331Z,80.85
2017-12-28T23:33:39.614Z,80.90
2017-12-28T23:36:05.420Z,81.07
2017-12-28T23:38:34.554Z,80.91
2017-12-28T23:41:00.381Z,80.88
2017-12-28T23:43:30.269Z,80.97
2017-12-28T23:45:56.065Z,81.25
2017-12-28T23:48:23.302Z,81.51
2017-12-28T23:50:49.125Z,81.57
2017-12-28T23:53:14.944Z,81.44
2017-12-28T23:55:40.791Z,81.40
2017-12-28T23:58:06.617Z,81.31
